sensor_id;sensor_type;location;lat;lon;timestamp;P1;durP1;ratioP1;P2;durP2;ratioP2
64293;SDS011;50636;45.596;5.258;2022-12-11T00:01:11;25.27;;;20.80;;
64293;SDS011;50636;45.596;5.258;2022-12-11T00:03:37;45.20;;;37.35;;
64293;SDS011;50636;45.596;5.258;2022-12-11T00:06:05;76.18;;;67.85;;
64293;SDS011;50636;45.596;5.258;2022-12-11T00:08:32;1999.90;;;999.90;;
64293;SDS011;50636;45.596;5.258;2022-12-11T00:10:57;1999.90;;;999.90;;
64293;SDS011;50636;45.596;5.258;2022-12-11T00:13:23;1999.90;;;888.00;;
64293;SDS011;50636;45.596;5.258;2022-12-11T00:15:48;521.67;;;234.50;;
64293;SDS011;50636;45.596;5.258;2022-12-11T00:18:14;217.02;;;86.03;;
64293;SDS011;50636;45.596;5.258;2022-12-11T00:20:40;164.23;;;57.20;;
64293;SDS011;50636;45.596;5.258;2022-12-11T00:23:06;136.52;;;49.80;;
64293;SDS011;50636;45.596;5.258;2022-12-11T00:25:32;73.75;;;34.28;;
64293;SDS011;50636;45.596;5.258;2022-12-11T00:27:58;85.00;;;39.50;;
64293;SDS011;50636;45.596;5.258;2022-12-11T00:30:23;84.07;;;43.15;;
64293;SDS011;50636;45.596;5.258;2022-12-11T00:32:52;39.10;;;20.30;;
64293;SDS011;50636;45.596;5.258;2022-12-11T00:35:17;45.55;;;22.92;;
64293;SDS011;50636;45.596;5.258;2022-12-11T00:37:43;56.40;;;28.92;;
64293;SDS011;50636;45.596;5.258;2022-12-11T00:40:09;38.92;;;21.50;;
64293;SDS011;50636;45.596;5.258;2022-12-11T00:42:35;34.22;;;19.27;;
64293;SDS011;50636;45.596;5.258;2022-12-11T00:45:00;45.55;;;25.02;;
64293;SDS011;50636;45.596;5.258;2022-12-11T00:47:26;25.75;;;16.08;;
64293;SDS011;50636;45.596;5.258;2022-12-11T00:49:51;22.13;;;15.82;;
64293;SDS011;50636;45.596;5.258;2022-12-11T00:52:17;27.00;;;15.93;;
64293;SDS011;50636;45.596;5.258;2022-12-11T00:54:42;28.23;;;15.98;;
64293;SDS011;50636;45.596;5.258;2022-12-11T00:57:08;20.23;;;12.23;;
64293;SDS011;50636;45.596;5.258;2022-12-11T00:59:34;19.55;;;13.95;;
64293;SDS011;50636;45.596;5.258;2022-12-11T01:01:59;18.85;;;12.57;;
64293;SDS011;50636;45.596;5.258;2022-12-11T01:04:25;22.67;;;13.48;;
64293;SDS011;50636;45.596;5.258;2022-12-11T01:06:50;23.85;;;14.00;;
64293;SDS011;50636;45.596;5.258;2022-12-11T01:09:16;19.80;;;12.77;;
64293;SDS011;50636;45.596;5.258;2022-12-11T01:12:00;20.80;;;12.43;;
64293;SDS011;50636;45.596;5.258;2022-12-11T01:14:25;18.52;;;11.98;;
64293;SDS011;50636;45.596;5.258;2022-12-11T01:16:51;19.58;;;11.50;;
64293;SDS011;50636;45.596;5.258;2022-12-11T01:19:17;19.98;;;11.88;;
64293;SDS011;50636;45.596;5.258;2022-12-11T01:21:43;23.58;;;11.90;;
64293;SDS011;50636;45.596;5.258;2022-12-11T01:24:08;19.30;;;11.85;;
64293;SDS011;50636;45.596;5.258;2022-12-11T01:26:34;16.73;;;12.77;;
64293;SDS011;50636;45.596;5.258;2022-12-11T01:29:00;16.33;;;11.30;;
64293;SDS011;50636;45.596;5.258;2022-12-11T01:31:25;19.08;;;11.32;;
64293;SDS011;50636;45.596;5.258;2022-12-11T01:33:52;19.75;;;10.68;;
64293;SDS011;50636;45.596;5.258;2022-12-11T01:36:19;27.83;;;13.25;;
64293;SDS011;50636;45.596;5.258;2022-12-11T01:38:46;20.83;;;12.32;;
64293;SDS011;50636;45.596;5.258;2022-12-11T01:41:13;15.13;;;11.60;;
64293;SDS011;50636;45.596;5.258;2022-12-11T01:43:54;19.55;;;11.35;;
64293;SDS011;50636;45.596;5.258;2022-12-11T01:46:28;18.58;;;11.05;;
64293;SDS011;50636;45.596;5.258;2022-12-11T01:48:55;24.30;;;13.20;;
64293;SDS011;50636;45.596;5.258;2022-12-11T01:51:23;17.77;;;13.30;;
64293;SDS011;50636;45.596;5.258;2022-12-11T01:53:50;16.00;;;11.45;;
64293;SDS011;50636;45.596;5.258;2022-12-11T01:56:23;21.25;;;11.30;;
64293;SDS011;50636;45.596;5.258;2022-12-11T01:58:52;19.98;;;11.85;;
64293;SDS011;50636;45.596;5.258;2022-12-11T02:01:23;25.50;;;13.05;;
64293;SDS011;50636;45.596;5.258;2022-12-11T02:03:55;22.08;;;11.18;;
64293;SDS011;50636;45.596;5.258;2022-12-11T02:09:04;17.63;;;11.27;;
64293;SDS011;50636;45.596;5.258;2022-12-11T02:11:57;21.70;;;11.63;;
64293;SDS011;50636;45.596;5.258;2022-12-11T02:14:27;22.02;;;12.30;;
64293;SDS011;50636;45.596;5.258;2022-12-11T02:25:30;18.58;;;12.27;;
64293;SDS011;50636;45.596;5.258;2022-12-11T02:31:09;19.83;;;14.73;;
64293;SDS011;50636;45.596;5.258;2022-12-11T02:33:40;19.67;;;14.32;;
64293;SDS011;50636;45.596;5.258;2022-12-11T02:36:11;16.40;;;12.00;;
64293;SDS011;50636;45.596;5.258;2022-12-11T02:38:40;18.13;;;12.70;;
64293;SDS011;50636;45.596;5.258;2022-12-11T02:41:07;18.40;;;11.73;;
64293;SDS011;50636;45.596;5.258;2022-12-11T02:43:35;21.05;;;13.00;;
64293;SDS011;50636;45.596;5.258;2022-12-11T02:46:03;15.07;;;12.00;;
64293;SDS011;50636;45.596;5.258;2022-12-11T02:48:32;19.13;;;12.40;;
64293;SDS011;50636;45.596;5.258;2022-12-11T02:50:59;17.90;;;11.40;;
64293;SDS011;50636;45.596;5.258;2022-12-11T02:53:28;22.27;;;12.18;;
64293;SDS011;50636;45.596;5.258;2022-12-11T02:55:58;18.23;;;12.40;;
64293;SDS011;50636;45.596;5.258;2022-12-11T02:58:31;23.23;;;13.20;;
64293;SDS011;50636;45.596;5.258;2022-12-11T03:00:58;20.65;;;13.23;;
64293;SDS011;50636;45.596;5.258;2022-12-11T03:03:24;22.40;;;13.25;;
64293;SDS011;50636;45.596;5.258;2022-12-11T03:05:50;20.63;;;14.50;;
64293;SDS011;50636;45.596;5.258;2022-12-11T03:08:15;34.30;;;25.23;;
64293;SDS011;50636;45.596;5.258;2022-12-11T03:10:43;21.52;;;15.23;;
64293;SDS011;50636;45.596;5.258;2022-12-11T03:13:18;34.45;;;24.02;;
64293;SDS011;50636;45.596;5.258;2022-12-11T03:15:53;28.38;;;18.73;;
64293;SDS011;50636;45.596;5.258;2022-12-11T03:18:39;20.20;;;13.93;;
64293;SDS011;50636;45.596;5.258;2022-12-11T03:21:37;23.02;;;13.20;;
64293;SDS011;50636;45.596;5.258;2022-12-11T03:24:19;18.48;;;12.40;;
64293;SDS011;50636;45.596;5.258;2022-12-11T03:26:56;16.45;;;11.15;;
64293;SDS011;50636;45.596;5.258;2022-12-11T03:30:03;22.30;;;15.32;;
64293;SDS011;50636;45.596;5.258;2022-12-11T03:32:35;22.15;;;14.10;;
64293;SDS011;50636;45.596;5.258;2022-12-11T03:38:01;20.83;;;11.05;;
64293;SDS011;50636;45.596;5.258;2022-12-11T03:40:33;28.67;;;14.00;;
64293;SDS011;50636;45.596;5.258;2022-12-11T03:43:01;18.40;;;12.45;;
64293;SDS011;50636;45.596;5.258;2022-12-11T03:45:29;18.33;;;11.95;;
64293;SDS011;50636;45.596;5.258;2022-12-11T03:47:55;23.92;;;12.50;;
64293;SDS011;50636;45.596;5.258;2022-12-11T03:50:27;23.55;;;12.75;;
64293;SDS011;50636;45.596;5.258;2022-12-11T03:52:56;20.08;;;13.05;;
64293;SDS011;50636;45.596;5.258;2022-12-11T03:55:25;18.50;;;12.00;;
64293;SDS011;50636;45.596;5.258;2022-12-11T03:57:53;21.20;;;13.00;;
64293;SDS011;50636;45.596;5.258;2022-12-11T04:00:19;20.95;;;12.77;;
64293;SDS011;50636;45.596;5.258;2022-12-11T04:02:45;18.40;;;12.52;;
64293;SDS011;50636;45.596;5.258;2022-12-11T04:05:31;23.85;;;13.23;;
64293;SDS011;50636;45.596;5.258;2022-12-11T04:07:56;19.73;;;12.10;;
64293;SDS011;50636;45.596;5.258;2022-12-11T04:10:22;22.65;;;12.38;;
64293;SDS011;50636;45.596;5.258;2022-12-11T04:12:48;28.40;;;13.70;;
64293;SDS011;50636;45.596;5.258;2022-12-11T04:15:14;18.58;;;11.65;;
64293;SDS011;50636;45.596;5.258;2022-12-11T04:17:39;24.35;;;12.95;;
64293;SDS011;50636;45.596;5.258;2022-12-11T04:20:23;22.20;;;12.70;;
64293;SDS011;50636;45.596;5.258;2022-12-11T04:23:11;22.48;;;12.40;;
64293;SDS011;50636;45.596;5.258;2022-12-11T04:26:02;20.45;;;12.40;;
64293;SDS011;50636;45.596;5.258;2022-12-11T04:28:36;20.92;;;13.10;;
64293;SDS011;50636;45.596;5.258;2022-12-11T04:31:02;19.88;;;12.73;;
64293;SDS011;50636;45.596;5.258;2022-12-11T04:33:28;21.25;;;12.98;;
64293;SDS011;50636;45.596;5.258;2022-12-11T04:35:56;18.20;;;12.50;;
64293;SDS011;50636;45.596;5.258;2022-12-11T04:38:22;28.67;;;13.57;;
64293;SDS011;50636;45.596;5.258;2022-12-11T04:40:48;19.42;;;13.70;;
64293;SDS011;50636;45.596;5.258;2022-12-11T04:43:14;23.08;;;13.60;;
64293;SDS011;50636;45.596;5.258;2022-12-11T04:45:39;20.80;;;13.10;;
64293;SDS011;50636;45.596;5.258;2022-12-11T04:48:05;21.38;;;13.30;;
64293;SDS011;50636;45.596;5.258;2022-12-11T04:50:31;22.73;;;12.55;;
64293;SDS011;50636;45.596;5.258;2022-12-11T04:52:56;20.58;;;12.75;;
64293;SDS011;50636;45.596;5.258;2022-12-11T04:55:22;20.05;;;12.60;;
64293;SDS011;50636;45.596;5.258;2022-12-11T04:57:48;26.77;;;15.05;;
64293;SDS011;50636;45.596;5.258;2022-12-11T05:00:14;18.83;;;12.88;;
64293;SDS011;50636;45.596;5.258;2022-12-11T05:02:41;25.38;;;14.63;;
64293;SDS011;50636;45.596;5.258;2022-12-11T05:05:07;26.23;;;15.52;;
64293;SDS011;50636;45.596;5.258;2022-12-11T05:07:35;23.52;;;14.82;;
64293;SDS011;50636;45.596;5.258;2022-12-11T05:10:02;27.17;;;16.08;;
64293;SDS011;50636;45.596;5.258;2022-12-11T05:12:28;23.30;;;15.45;;
64293;SDS011;50636;45.596;5.258;2022-12-11T05:14:53;23.63;;;14.60;;
64293;SDS011;50636;45.596;5.258;2022-12-11T05:17:20;26.58;;;15.40;;
64293;SDS011;50636;45.596;5.258;2022-12-11T05:19:49;24.25;;;15.98;;
64293;SDS011;50636;45.596;5.258;2022-12-11T05:22:16;23.92;;;14.52;;
64293;SDS011;50636;45.596;5.258;2022-12-11T05:24:42;27.77;;;17.13;;
64293;SDS011;50636;45.596;5.258;2022-12-11T05:27:08;20.83;;;13.63;;
64293;SDS011;50636;45.596;5.258;2022-12-11T05:29:35;34.45;;;16.92;;
64293;SDS011;50636;45.596;5.258;2022-12-11T05:32:01;35.35;;;15.63;;
64293;SDS011;50636;45.596;5.258;2022-12-11T05:34:27;21.40;;;14.18;;
64293;SDS011;50636;45.596;5.258;2022-12-11T05:36:53;22.67;;;15.27;;
64293;SDS011;50636;45.596;5.258;2022-12-11T05:39:19;26.45;;;15.98;;
64293;SDS011;50636;45.596;5.258;2022-12-11T05:41:44;24.13;;;15.02;;
64293;SDS011;50636;45.596;5.258;2022-12-11T05:44:11;24.55;;;15.13;;
64293;SDS011;50636;45.596;5.258;2022-12-11T05:46:37;22.15;;;13.73;;
64293;SDS011;50636;45.596;5.258;2022-12-11T05:49:03;23.58;;;14.30;;
64293;SDS011;50636;45.596;5.258;2022-12-11T05:51:29;24.10;;;13.35;;
64293;SDS011;50636;45.596;5.258;2022-12-11T05:53:55;22.52;;;14.05;;
64293;SDS011;50636;45.596;5.258;2022-12-11T05:56:25;23.67;;;14.60;;
64293;SDS011;50636;45.596;5.258;2022-12-11T05:58:53;23.60;;;13.98;;
64293;SDS011;50636;45.596;5.258;2022-12-11T06:01:24;20.55;;;13.73;;
64293;SDS011;50636;45.596;5.258;2022-12-11T06:03:54;26.67;;;15.23;;
64293;SDS011;50636;45.596;5.258;2022-12-11T06:06:21;27.65;;;14.38;;
64293;SDS011;50636;45.596;5.258;2022-12-11T06:08:50;26.90;;;14.57;;
64293;SDS011;50636;45.596;5.258;2022-12-11T06:11:17;24.52;;;15.85;;
64293;SDS011;50636;45.596;5.258;2022-12-11T06:13:43;20.25;;;13.95;;
64293;SDS011;50636;45.596;5.258;2022-12-11T06:16:08;22.83;;;13.60;;
64293;SDS011;50636;45.596;5.258;2022-12-11T06:18:38;22.60;;;14.45;;
64293;SDS011;50636;45.596;5.258;2022-12-11T06:21:25;29.02;;;14.85;;
64293;SDS011;50636;45.596;5.258;2022-12-11T06:23:55;26.65;;;14.63;;
64293;SDS011;50636;45.596;5.258;2022-12-11T06:26:22;24.42;;;15.40;;
64293;SDS011;50636;45.596;5.258;2022-12-11T06:28:48;22.20;;;13.25;;
64293;SDS011;50636;45.596;5.258;2022-12-11T06:31:14;24.52;;;15.48;;
64293;SDS011;50636;45.596;5.258;2022-12-11T06:33:40;23.63;;;14.40;;
64293;SDS011;50636;45.596;5.258;2022-12-11T06:36:07;29.73;;;15.00;;
64293;SDS011;50636;45.596;5.258;2022-12-11T06:38:34;22.33;;;15.00;;
64293;SDS011;50636;45.596;5.258;2022-12-11T06:41:01;20.30;;;14.10;;
64293;SDS011;50636;45.596;5.258;2022-12-11T06:43:29;22.55;;;14.30;;
64293;SDS011;50636;45.596;5.258;2022-12-11T06:45:55;24.55;;;15.68;;
64293;SDS011;50636;45.596;5.258;2022-12-11T06:48:21;21.98;;;14.60;;
64293;SDS011;50636;45.596;5.258;2022-12-11T06:50:47;27.00;;;16.77;;
64293;SDS011;50636;45.596;5.258;2022-12-11T06:53:12;26.40;;;14.60;;
64293;SDS011;50636;45.596;5.258;2022-12-11T06:55:39;20.60;;;14.20;;
64293;SDS011;50636;45.596;5.258;2022-12-11T06:58:06;22.17;;;14.38;;
64293;SDS011;50636;45.596;5.258;2022-12-11T07:00:35;22.77;;;14.05;;
64293;SDS011;50636;45.596;5.258;2022-12-11T07:03:02;27.65;;;15.75;;
64293;SDS011;50636;45.596;5.258;2022-12-11T07:05:28;23.58;;;16.65;;
64293;SDS011;50636;45.596;5.258;2022-12-11T07:07:54;26.08;;;14.00;;
64293;SDS011;50636;45.596;5.258;2022-12-11T07:10:20;22.00;;;13.95;;
64293;SDS011;50636;45.596;5.258;2022-12-11T07:12:47;22.98;;;15.20;;
64293;SDS011;50636;45.596;5.258;2022-12-11T07:15:12;27.08;;;14.15;;
64293;SDS011;50636;45.596;5.258;2022-12-11T07:17:38;24.05;;;14.85;;
64293;SDS011;50636;45.596;5.258;2022-12-11T07:20:04;22.98;;;14.30;;
64293;SDS011;50636;45.596;5.258;2022-12-11T07:22:30;18.77;;;13.95;;
64293;SDS011;50636;45.596;5.258;2022-12-11T07:24:55;29.45;;;16.00;;
64293;SDS011;50636;45.596;5.258;2022-12-11T07:27:21;22.65;;;14.45;;
64293;SDS011;50636;45.596;5.258;2022-12-11T07:29:47;22.73;;;14.98;;
64293;SDS011;50636;45.596;5.258;2022-12-11T07:32:12;24.42;;;14.35;;
64293;SDS011;50636;45.596;5.258;2022-12-11T07:34:38;27.08;;;16.60;;
64293;SDS011;50636;45.596;5.258;2022-12-11T07:37:04;24.30;;;15.60;;
64293;SDS011;50636;45.596;5.258;2022-12-11T07:39:29;27.17;;;18.63;;
64293;SDS011;50636;45.596;5.258;2022-12-11T07:41:55;26.83;;;15.35;;
64293;SDS011;50636;45.596;5.258;2022-12-11T07:44:20;27.98;;;16.00;;
64293;SDS011;50636;45.596;5.258;2022-12-11T07:46:46;26.58;;;16.60;;
64293;SDS011;50636;45.596;5.258;2022-12-11T07:49:12;24.08;;;15.98;;
64293;SDS011;50636;45.596;5.258;2022-12-11T07:51:37;22.92;;;14.63;;
64293;SDS011;50636;45.596;5.258;2022-12-11T07:54:04;25.58;;;16.70;;
64293;SDS011;50636;45.596;5.258;2022-12-11T07:56:32;27.08;;;18.55;;
64293;SDS011;50636;45.596;5.258;2022-12-11T07:58:59;30.45;;;18.30;;
64293;SDS011;50636;45.596;5.258;2022-12-11T08:01:26;27.08;;;18.08;;
64293;SDS011;50636;45.596;5.258;2022-12-11T08:03:53;22.33;;;15.48;;
64293;SDS011;50636;45.596;5.258;2022-12-11T08:06:19;24.00;;;15.43;;
64293;SDS011;50636;45.596;5.258;2022-12-11T08:08:53;32.78;;;19.65;;
64293;SDS011;50636;45.596;5.258;2022-12-11T08:11:20;33.75;;;18.42;;
64293;SDS011;50636;45.596;5.258;2022-12-11T08:13:45;33.17;;;16.83;;
64293;SDS011;50636;45.596;5.258;2022-12-11T08:16:12;23.52;;;15.88;;
64293;SDS011;50636;45.596;5.258;2022-12-11T08:18:39;28.40;;;17.08;;
64293;SDS011;50636;45.596;5.258;2022-12-11T08:21:10;25.98;;;15.55;;
64293;SDS011;50636;45.596;5.258;2022-12-11T08:23:38;24.88;;;16.80;;
64293;SDS011;50636;45.596;5.258;2022-12-11T08:26:05;27.38;;;17.35;;
64293;SDS011;50636;45.596;5.258;2022-12-11T08:28:32;22.70;;;15.65;;
64293;SDS011;50636;45.596;5.258;2022-12-11T08:30:58;23.00;;;14.90;;
64293;SDS011;50636;45.596;5.258;2022-12-11T08:33:24;23.98;;;14.50;;
64293;SDS011;50636;45.596;5.258;2022-12-11T08:35:50;26.52;;;15.20;;
64293;SDS011;50636;45.596;5.258;2022-12-11T08:38:16;27.42;;;16.13;;
64293;SDS011;50636;45.596;5.258;2022-12-11T08:40:42;23.20;;;15.77;;
64293;SDS011;50636;45.596;5.258;2022-12-11T08:43:07;27.67;;;15.68;;
64293;SDS011;50636;45.596;5.258;2022-12-11T08:45:33;25.17;;;16.23;;
64293;SDS011;50636;45.596;5.258;2022-12-11T08:47:58;27.05;;;17.70;;
64293;SDS011;50636;45.596;5.258;2022-12-11T08:50:24;25.38;;;16.92;;
64293;SDS011;50636;45.596;5.258;2022-12-11T08:52:50;23.88;;;17.52;;
64293;SDS011;50636;45.596;5.258;2022-12-11T08:55:15;28.60;;;18.88;;
64293;SDS011;50636;45.596;5.258;2022-12-11T08:57:41;23.70;;;16.65;;
64293;SDS011;50636;45.596;5.258;2022-12-11T09:00:07;24.48;;;14.02;;
64293;SDS011;50636;45.596;5.258;2022-12-11T09:02:36;26.17;;;15.93;;
64293;SDS011;50636;45.596;5.258;2022-12-11T09:05:02;37.05;;;22.83;;
64293;SDS011;50636;45.596;5.258;2022-12-11T09:07:32;30.70;;;19.90;;
64293;SDS011;50636;45.596;5.258;2022-12-11T09:09:58;26.52;;;19.90;;
64293;SDS011;50636;45.596;5.258;2022-12-11T09:12:24;36.25;;;19.20;;
64293;SDS011;50636;45.596;5.258;2022-12-11T09:14:49;26.48;;;17.58;;
64293;SDS011;50636;45.596;5.258;2022-12-11T09:17:15;26.25;;;16.45;;
64293;SDS011;50636;45.596;5.258;2022-12-11T09:19:40;26.08;;;16.50;;
64293;SDS011;50636;45.596;5.258;2022-12-11T09:22:06;25.73;;;14.20;;
64293;SDS011;50636;45.596;5.258;2022-12-11T09:24:34;31.70;;;16.55;;
64293;SDS011;50636;45.596;5.258;2022-12-11T09:27:00;27.88;;;15.68;;
64293;SDS011;50636;45.596;5.258;2022-12-11T09:29:25;22.85;;;15.93;;
64293;SDS011;50636;45.596;5.258;2022-12-11T09:31:51;28.25;;;16.20;;
64293;SDS011;50636;45.596;5.258;2022-12-11T09:34:16;26.40;;;16.23;;
64293;SDS011;50636;45.596;5.258;2022-12-11T09:36:42;26.60;;;16.85;;
64293;SDS011;50636;45.596;5.258;2022-12-11T09:39:09;27.40;;;18.23;;
64293;SDS011;50636;45.596;5.258;2022-12-11T09:41:37;28.90;;;17.77;;
64293;SDS011;50636;45.596;5.258;2022-12-11T09:46:58;33.03;;;19.48;;
64293;SDS011;50636;45.596;5.258;2022-12-11T09:57:33;27.10;;;15.60;;
64293;SDS011;50636;45.596;5.258;2022-12-11T10:02:43;31.73;;;17.85;;
64293;SDS011;50636;45.596;5.258;2022-12-11T10:05:23;34.20;;;16.85;;
64293;SDS011;50636;45.596;5.258;2022-12-11T10:16:48;26.65;;;16.88;;
64293;SDS011;50636;45.596;5.258;2022-12-11T10:19:20;29.30;;;16.83;;
64293;SDS011;50636;45.596;5.258;2022-12-11T10:21:56;24.25;;;15.07;;
64293;SDS011;50636;45.596;5.258;2022-12-11T10:24:34;27.10;;;16.73;;
64293;SDS011;50636;45.596;5.258;2022-12-11T10:27:17;36.25;;;16.70;;
64293;SDS011;50636;45.596;5.258;2022-12-11T10:29:45;30.20;;;16.90;;
64293;SDS011;50636;45.596;5.258;2022-12-11T10:32:26;26.58;;;18.13;;
64293;SDS011;50636;45.596;5.258;2022-12-11T10:35:28;32.28;;;19.65;;
64293;SDS011;50636;45.596;5.258;2022-12-11T10:40:40;26.02;;;17.13;;
64293;SDS011;50636;45.596;5.258;2022-12-11T10:43:10;30.60;;;19.95;;
64293;SDS011;50636;45.596;5.258;2022-12-11T10:45:36;29.65;;;18.02;;
64293;SDS011;50636;45.596;5.258;2022-12-11T10:48:08;26.73;;;16.70;;
64293;SDS011;50636;45.596;5.258;2022-12-11T10:50:35;28.42;;;17.42;;
64293;SDS011;50636;45.596;5.258;2022-12-11T10:53:01;27.00;;;17.30;;
64293;SDS011;50636;45.596;5.258;2022-12-11T10:55:29;28.50;;;17.73;;
64293;SDS011;50636;45.596;5.258;2022-12-11T11:00:34;23.65;;;15.43;;
64293;SDS011;50636;45.596;5.258;2022-12-11T11:03:02;32.28;;;15.63;;
64293;SDS011;50636;45.596;5.258;2022-12-11T11:05:44;31.63;;;19.27;;
64293;SDS011;50636;45.596;5.258;2022-12-11T11:10:56;21.38;;;15.57;;
64293;SDS011;50636;45.596;5.258;2022-12-11T11:13:23;25.27;;;15.70;;
64293;SDS011;50636;45.596;5.258;2022-12-11T11:15:57;25.10;;;16.90;;
64293;SDS011;50636;45.596;5.258;2022-12-11T11:18:25;28.25;;;17.25;;
64293;SDS011;50636;45.596;5.258;2022-12-11T11:20:52;24.88;;;17.48;;
64293;SDS011;50636;45.596;5.258;2022-12-11T11:23:19;32.30;;;17.90;;
64293;SDS011;50636;45.596;5.258;2022-12-11T11:25:50;24.90;;;15.40;;
64293;SDS011;50636;45.596;5.258;2022-12-11T11:28:18;25.58;;;16.15;;
64293;SDS011;50636;45.596;5.258;2022-12-11T11:30:58;25.20;;;16.88;;
64293;SDS011;50636;45.596;5.258;2022-12-11T11:33:27;32.03;;;16.85;;
64293;SDS011;50636;45.596;5.258;2022-12-11T11:35:55;26.33;;;18.80;;
64293;SDS011;50636;45.596;5.258;2022-12-11T11:38:36;27.00;;;17.38;;
64293;SDS011;50636;45.596;5.258;2022-12-11T11:43:45;27.45;;;17.50;;
64293;SDS011;50636;45.596;5.258;2022-12-11T11:46:28;24.35;;;16.23;;
64293;SDS011;50636;45.596;5.258;2022-12-11T11:51:42;29.90;;;19.25;;
64293;SDS011;50636;45.596;5.258;2022-12-11T11:54:38;31.48;;;21.05;;
64293;SDS011;50636;45.596;5.258;2022-12-11T11:57:08;32.30;;;19.25;;
64293;SDS011;50636;45.596;5.258;2022-12-11T11:59:44;28.38;;;18.83;;
64293;SDS011;50636;45.596;5.258;2022-12-11T12:02:14;29.00;;;18.88;;
64293;SDS011;50636;45.596;5.258;2022-12-11T12:04:42;29.30;;;17.55;;
64293;SDS011;50636;45.596;5.258;2022-12-11T12:10:06;29.30;;;17.85;;
64293;SDS011;50636;45.596;5.258;2022-12-11T12:13:22;29.65;;;18.73;;
64293;SDS011;50636;45.596;5.258;2022-12-11T12:20:52;24.17;;;16.58;;
64293;SDS011;50636;45.596;5.258;2022-12-11T12:23:37;28.80;;;17.33;;
64293;SDS011;50636;45.596;5.258;2022-12-11T12:34:26;23.88;;;15.95;;
64293;SDS011;50636;45.596;5.258;2022-12-11T12:39:40;29.08;;;17.10;;
64293;SDS011;50636;45.596;5.258;2022-12-11T12:44:58;25.42;;;15.73;;
64293;SDS011;50636;45.596;5.258;2022-12-11T12:47:34;25.70;;;14.30;;
64293;SDS011;50636;45.596;5.258;2022-12-11T12:50:01;26.90;;;15.98;;
64293;SDS011;50636;45.596;5.258;2022-12-11T12:52:32;25.50;;;15.65;;
64293;SDS011;50636;45.596;5.258;2022-12-11T12:55:02;29.25;;;18.20;;
64293;SDS011;50636;45.596;5.258;2022-12-11T12:57:56;25.33;;;16.90;;
64293;SDS011;50636;45.596;5.258;2022-12-11T13:00:34;26.90;;;16.42;;
64293;SDS011;50636;45.596;5.258;2022-12-11T13:03:18;30.27;;;17.83;;
64293;SDS011;50636;45.596;5.258;2022-12-11T13:06:06;32.83;;;19.00;;
64293;SDS011;50636;45.596;5.258;2022-12-11T13:08:34;29.17;;;17.58;;
64293;SDS011;50636;45.596;5.258;2022-12-11T13:11:13;36.75;;;18.10;;
64293;SDS011;50636;45.596;5.258;2022-12-11T13:13:42;29.52;;;18.90;;
64293;SDS011;50636;45.596;5.258;2022-12-11T13:18:40;34.15;;;17.77;;
64293;SDS011;50636;45.596;5.258;2022-12-11T13:24:15;39.40;;;19.02;;
64293;SDS011;50636;45.596;5.258;2022-12-11T13:26:44;34.17;;;19.63;;
64293;SDS011;50636;45.596;5.258;2022-12-11T13:34:38;35.25;;;17.30;;
64293;SDS011;50636;45.596;5.258;2022-12-11T13:37:15;29.45;;;19.33;;
64293;SDS011;50636;45.596;5.258;2022-12-11T13:40:23;28.23;;;16.88;;
64293;SDS011;50636;45.596;5.258;2022-12-11T13:42:53;30.65;;;18.02;;
64293;SDS011;50636;45.596;5.258;2022-12-11T13:45:28;35.67;;;19.33;;
64293;SDS011;50636;45.596;5.258;2022-12-11T13:48:02;29.77;;;17.27;;
64293;SDS011;50636;45.596;5.258;2022-12-11T13:50:33;29.42;;;18.58;;
64293;SDS011;50636;45.596;5.258;2022-12-11T13:53:01;31.77;;;19.30;;
64293;SDS011;50636;45.596;5.258;2022-12-11T13:55:31;34.38;;;17.92;;
64293;SDS011;50636;45.596;5.258;2022-12-11T13:57:58;28.92;;;16.75;;
64293;SDS011;50636;45.596;5.258;2022-12-11T14:00:25;28.45;;;15.93;;
64293;SDS011;50636;45.596;5.258;2022-12-11T14:02:55;29.10;;;17.17;;
64293;SDS011;50636;45.596;5.258;2022-12-11T14:05:24;32.78;;;19.08;;
64293;SDS011;50636;45.596;5.258;2022-12-11T14:07:50;29.35;;;16.40;;
64293;SDS011;50636;45.596;5.258;2022-12-11T14:15:32;29.00;;;16.48;;
64293;SDS011;50636;45.596;5.258;2022-12-11T14:18:00;33.10;;;18.40;;
64293;SDS011;50636;45.596;5.258;2022-12-11T14:20:27;27.25;;;16.17;;
64293;SDS011;50636;45.596;5.258;2022-12-11T14:23:06;32.08;;;17.52;;
64293;SDS011;50636;45.596;5.258;2022-12-11T14:25:40;33.90;;;17.15;;
64293;SDS011;50636;45.596;5.258;2022-12-11T14:28:12;34.58;;;18.08;;
64293;SDS011;50636;45.596;5.258;2022-12-11T14:30:43;24.92;;;16.45;;
64293;SDS011;50636;45.596;5.258;2022-12-11T14:33:12;29.55;;;19.60;;
64293;SDS011;50636;45.596;5.258;2022-12-11T14:35:39;31.60;;;19.70;;
64293;SDS011;50636;45.596;5.258;2022-12-11T14:38:11;29.45;;;18.35;;
64293;SDS011;50636;45.596;5.258;2022-12-11T14:40:58;31.75;;;18.52;;
64293;SDS011;50636;45.596;5.258;2022-12-11T14:43:32;38.78;;;18.83;;
64293;SDS011;50636;45.596;5.258;2022-12-11T14:46:09;38.88;;;19.75;;
64293;SDS011;50636;45.596;5.258;2022-12-11T14:48:43;36.60;;;19.73;;
64293;SDS011;50636;45.596;5.258;2022-12-11T14:51:16;39.38;;;23.58;;
64293;SDS011;50636;45.596;5.258;2022-12-11T14:53:44;37.78;;;21.08;;
64293;SDS011;50636;45.596;5.258;2022-12-11T14:56:22;31.65;;;20.08;;
64293;SDS011;50636;45.596;5.258;2022-12-11T15:01:56;28.30;;;17.77;;
64293;SDS011;50636;45.596;5.258;2022-12-11T15:04:28;31.13;;;19.08;;
64293;SDS011;50636;45.596;5.258;2022-12-11T15:06:55;35.65;;;17.88;;
64293;SDS011;50636;45.596;5.258;2022-12-11T15:09:55;36.17;;;21.25;;
64293;SDS011;50636;45.596;5.258;2022-12-11T15:12:16;26.63;;;17.65;;
64293;SDS011;50636;45.596;5.258;2022-12-11T15:14:47;28.33;;;18.30;;
64293;SDS011;50636;45.596;5.258;2022-12-11T15:17:15;36.05;;;18.58;;
64293;SDS011;50636;45.596;5.258;2022-12-11T15:19:53;32.60;;;19.75;;
64293;SDS011;50636;45.596;5.258;2022-12-11T15:22:21;28.38;;;18.05;;
64293;SDS011;50636;45.596;5.258;2022-12-11T15:24:52;29.00;;;17.63;;
64293;SDS011;50636;45.596;5.258;2022-12-11T15:30:25;30.38;;;18.48;;
64293;SDS011;50636;45.596;5.258;2022-12-11T15:33:00;27.08;;;16.48;;
64293;SDS011;50636;45.596;5.258;2022-12-11T15:35:27;36.00;;;20.45;;
64293;SDS011;50636;45.596;5.258;2022-12-11T15:37:54;35.33;;;20.88;;
64293;SDS011;50636;45.596;5.258;2022-12-11T15:40:21;35.90;;;18.30;;
64293;SDS011;50636;45.596;5.258;2022-12-11T15:42:47;52.42;;;37.50;;
64293;SDS011;50636;45.596;5.258;2022-12-11T15:45:20;35.35;;;21.25;;
64293;SDS011;50636;45.596;5.258;2022-12-11T15:47:48;41.38;;;27.33;;
64293;SDS011;50636;45.596;5.258;2022-12-11T15:52:45;60.47;;;42.08;;
64293;SDS011;50636;45.596;5.258;2022-12-11T15:55:11;87.55;;;64.60;;
64293;SDS011;50636;45.596;5.258;2022-12-11T15:57:37;46.03;;;28.20;;
64293;SDS011;50636;45.596;5.258;2022-12-11T16:00:09;72.45;;;37.35;;
64293;SDS011;50636;45.596;5.258;2022-12-11T16:02:38;75.45;;;35.58;;
64293;SDS011;50636;45.596;5.258;2022-12-11T16:05:03;126.32;;;50.63;;
64293;SDS011;50636;45.596;5.258;2022-12-11T16:07:29;122.57;;;46.38;;
64293;SDS011;50636;45.596;5.258;2022-12-11T16:09:55;44.17;;;25.10;;
64293;SDS011;50636;45.596;5.258;2022-12-11T16:12:20;49.00;;;25.52;;
64293;SDS011;50636;45.596;5.258;2022-12-11T16:14:46;74.57;;;30.13;;